Time;durP1;ratioP1;P1;durP2;ratioP2;P2;SDS_P1;SDS_P2;PMS_P1;PMS_P2;Temp;Humidity;BMP_temperature;BMP_pressure;BME280_temperature;BME280_humidity;BME280_pressure;Samples;Min_cycle;Max_cycle;Signal;HPM_P1;HPM_P2
2023/03/23 00:01:19;;;;;;;9.38;4.65;;;;;;;;;;5076595;28;20040;-86
2023/03/23 00:03:45;;;;;;;8.38;5.03;;;;;;;;;;5076874;28;20048;-86
2023/03/23 00:06:17;;;;;;;8.30;4.68;;;;;;;;;;5076668;28;20044;-86
2023/03/23 00:08:47;;;;;;;2.78;1.55;;;;;;;;;;5093865;28;20528;-86
2023/03/23 00:11:18;;;;;;;1.77;1.15;;;;;;;;;;5076893;28;20040;-86
2023/03/23 00:13:45;;;;;;;6.07;2.10;;;;;;;;;;5076891;28;20056;-86
2023/03/23 00:16:19;;;;;;;17.52;3.03;;;;;;;;;;5076662;28;20036;-86
2023/03/23 00:18:45;;;;;;;4.47;2.15;;;;;;;;;;5093733;28;20087;-86
2023/03/23 00:21:11;;;;;;;3.08;1.48;;;;;;;;;;5076619;28;20054;-86
2023/03/23 00:23:39;;;;;;;1.35;1.00;;;;;;;;;;5082053;28;20052;-86
2023/03/23 00:26:05;;;;;;;5.85;1.35;;;;;;;;;;5086345;28;20048;-86
2023/03/23 00:28:31;;;;;;;1.98;0.85;;;;;;;;;;5093400;28;20052;-86
2023/03/23 00:30:58;;;;;;;0.70;0.70;;;;;;;;;;5076275;28;20040;-86
2023/03/23 00:33:26;;;;;;;2.22;0.77;;;;;;;;;;5076217;28;20040;-86
2023/03/23 00:35:52;;;;;;;3.15;0.95;;;;;;;;;;5093348;28;20113;-86
2023/03/23 00:38:19;;;;;;;5.25;1.05;;;;;;;;;;5076567;28;20070;-86
2023/03/23 00:40:46;;;;;;;3.88;1.70;;;;;;;;;;5093066;28;20035;-85
2023/03/23 00:43:13;;;;;;;6.30;1.17;;;;;;;;;;5076304;28;20047;-86
2023/03/23 00:45:39;;;;;;;7.35;1.60;;;;;;;;;;5092929;28;20044;-86
2023/03/23 00:48:06;;;;;;;10.07;1.63;;;;;;;;;;5093531;28;20048;-86
2023/03/23 00:50:32;;;;;;;5.28;1.20;;;;;;;;;;5075383;28;20476;-86
2023/03/23 00:52:58;;;;;;;3.78;1.20;;;;;;;;;;5076004;28;20143;-86
2023/03/23 00:55:25;;;;;;;5.65;1.50;;;;;;;;;;5092817;28;20040;-86
2023/03/23 00:57:51;;;;;;;3.15;1.40;;;;;;;;;;5076103;28;20484;-86
2023/03/23 01:00:19;;;;;;;6.93;1.00;;;;;;;;;;5093130;28;20496;-86
2023/03/23 01:02:45;;;;;;;2.45;1.10;;;;;;;;;;5076714;28;20040;-86
2023/03/23 01:05:12;;;;;;;3.60;1.13;;;;;;;;;;5092504;28;20484;-86
2023/03/23 01:07:38;;;;;;;3.78;0.93;;;;;;;;;;5075860;28;20048;-87
2023/03/23 01:10:04;;;;;;;4.82;1.00;;;;;;;;;;5075905;28;20059;-87
2023/03/23 01:12:31;;;;;;;3.75;1.00;;;;;;;;;;5093085;28;20056;-86
2023/03/23 01:14:57;;;;;;;4.35;1.35;;;;;;;;;;5092896;28;20052;-86
2023/03/23 01:17:23;;;;;;;1.42;0.95;;;;;;;;;;5092778;28;20044;-86
2023/03/23 01:19:51;;;;;;;1.50;0.88;;;;;;;;;;5076544;28;20094;-86
2023/03/23 01:22:17;;;;;;;4.32;0.90;;;;;;;;;;5075650;28;20044;-86
2023/03/23 01:24:44;;;;;;;3.03;1.45;;;;;;;;;;5075733;28;20503;-86
2023/03/23 01:27:10;;;;;;;2.45;0.90;;;;;;;;;;5075887;28;20496;-86
2023/03/23 01:29:36;;;;;;;4.63;0.90;;;;;;;;;;5092659;28;20098;-86
2023/03/23 01:32:02;;;;;;;9.48;1.95;;;;;;;;;;5092642;28;20109;-86
2023/03/23 01:34:31;;;;;;;0.95;0.90;;;;;;;;;;5075388;28;20097;-86
2023/03/23 01:36:57;;;;;;;2.58;0.98;;;;;;;;;;5092731;28;20090;-86
2023/03/23 01:39:23;;;;;;;0.93;0.90;;;;;;;;;;5087657;28;20061;-87
2023/03/23 01:41:49;;;;;;;1.30;0.95;;;;;;;;;;5078185;28;20055;-87
2023/03/23 01:44:18;;;;;;;0.73;0.73;;;;;;;;;;5075474;28;20044;-87
2023/03/23 01:46:44;;;;;;;3.58;1.00;;;;;;;;;;5075481;28;20054;-86
2023/03/23 01:49:12;;;;;;;0.85;0.85;;;;;;;;;;5092181;28;20052;-86
2023/03/23 01:51:43;;;;;;;3.55;1.00;;;;;;;;;;5075488;28;20505;-86
2023/03/23 01:54:13;;;;;;;1.92;1.00;;;;;;;;;;5075545;28;20048;-86
2023/03/23 01:56:44;;;;;;;2.38;0.88;;;;;;;;;;5075582;28;20131;-86
2023/03/23 01:59:10;;;;;;;2.60;1.05;;;;;;;;;;5075780;28;20119;-84
2023/03/23 02:01:42;;;;;;;1.13;0.90;;;;;;;;;;5078248;28;20365;-86
2023/03/23 02:04:09;;;;;;;1.02;0.90;;;;;;;;;;5079484;28;20071;-86
2023/03/23 02:06:35;;;;;;;0.60;0.60;;;;;;;;;;5096130;28;20130;-86
2023/03/23 02:09:01;;;;;;;1.60;0.95;;;;;;;;;;5079039;28;20043;-87
2023/03/23 02:11:27;;;;;;;6.78;1.55;;;;;;;;;;5095973;28;20056;-88
2023/03/23 02:13:53;;;;;;;1.08;0.98;;;;;;;;;;5079605;28;20044;-86
2023/03/23 02:16:19;;;;;;;1.42;0.88;;;;;;;;;;5078803;28;20048;-84
2023/03/23 02:18:52;;;;;;;3.53;1.00;;;;;;;;;;5079275;28;20047;-86
2023/03/23 02:21:37;;;;;;;2.72;0.90;;;;;;;;;;5079043;28;20484;-86
2023/03/23 02:24:15;;;;;;;1.23;0.82;;;;;;;;;;5095767;28;20127;-85
2023/03/23 02:26:44;;;;;;;0.90;0.73;;;;;;;;;;5078821;28;20098;-87
2023/03/23 02:29:29;;;;;;;1.65;1.00;;;;;;;;;;5078739;28;20484;-86
2023/03/23 02:31:55;;;;;;;1.25;0.90;;;;;;;;;;5078774;28;20048;-87
2023/03/23 02:34:29;;;;;;;1.67;1.30;;;;;;;;;;5078697;28;20047;-87
2023/03/23 02:37:16;;;;;;;2.38;0.95;;;;;;;;;;5095293;28;20067;-85
2023/03/23 02:39:46;;;;;;;1.83;0.68;;;;;;;;;;5095419;28;20369;-86
2023/03/23 02:42:14;;;;;;;2.15;0.95;;;;;;;;;;5078566;28;20040;-86
2023/03/23 02:44:41;;;;;;;1.10;1.00;;;;;;;;;;5095627;28;20081;-86
2023/03/23 02:47:09;;;;;;;1.85;0.98;;;;;;;;;;5078442;28;20480;-87
2023/03/23 02:49:37;;;;;;;1.40;0.80;;;;;;;;;;5078290;28;20044;-87
2023/03/23 02:52:14;;;;;;;1.50;0.85;;;;;;;;;;5079016;28;20112;-86
2023/03/23 02:54:41;;;;;;;2.38;0.75;;;;;;;;;;5094390;28;20040;-85
2023/03/23 02:57:07;;;;;;;3.33;1.10;;;;;;;;;;5078371;28;20052;-86
2023/03/23 02:59:34;;;;;;;4.85;1.08;;;;;;;;;;5078311;28;20128;-86
2023/03/23 03:02:10;;;;;;;0.95;0.88;;;;;;;;;;5095086;28;20055;-86
2023/03/23 03:04:40;;;;;;;2.05;1.00;;;;;;;;;;5078393;28;20142;-86
2023/03/23 03:07:24;;;;;;;1.55;1.00;;;;;;;;;;5078401;28;20040;-87
2023/03/23 03:09:59;;;;;;;2.80;1.25;;;;;;;;;;5077960;28;20052;-87
2023/03/23 03:12:33;;;;;;;1.58;1.00;;;;;;;;;;5077278;28;20373;-86
2023/03/23 03:15:02;;;;;;;1.02;0.80;;;;;;;;;;5077680;28;20052;-86
2023/03/23 03:17:30;;;;;;;1.67;1.00;;;;;;;;;;5094829;28;20556;-86
2023/03/23 03:19:58;;;;;;;19.23;1.90;;;;;;;;;;5078089;28;20088;-85
2023/03/23 03:22:28;;;;;;;1.05;0.65;;;;;;;;;;5078046;28;20089;-86
2023/03/23 03:24:56;;;;;;;0.82;0.70;;;;;;;;;;5077644;28;20400;-89
2023/03/23 03:27:24;;;;;;;2.78;0.80;;;;;;;;;;5094352;28;20052;-86
2023/03/23 03:29:54;;;;;;;1.33;0.82;;;;;;;;;;5077644;28;20059;-85
2023/03/23 03:32:22;;;;;;;2.38;0.95;;;;;;;;;;5093835;28;20056;-87
2023/03/23 03:34:50;;;;;;;2.10;0.88;;;;;;;;;;5077641;28;20044;-86
2023/03/23 03:37:17;;;;;;;2.60;0.77;;;;;;;;;;5094619;28;20055;-85
2023/03/23 03:39:43;;;;;;;1.95;0.80;;;;;;;;;;5076767;28;20050;-86
2023/03/23 03:42:09;;;;;;;3.17;0.90;;;;;;;;;;5077322;28;20067;-85
2023/03/23 03:44:35;;;;;;;1.23;1.00;;;;;;;;;;5077164;28;20036;-90
2023/03/23 03:47:01;;;;;;;2.92;1.00;;;;;;;;;;5093857;28;20052;-87
2023/03/23 03:49:28;;;;;;;27.63;2.30;;;;;;;;;;5094064;28;20044;-87
2023/03/23 03:51:54;;;;;;;1.35;0.80;;;;;;;;;;5077553;28;20040;-88
2023/03/23 03:54:20;;;;;;;1.92;1.08;;;;;;;;;;5077381;28;20051;-87
2023/03/23 03:56:46;;;;;;;1.25;0.80;;;;;;;;;;5077059;28;20084;-87
2023/03/23 03:59:13;;;;;;;3.22;0.80;;;;;;;;;;5093941;28;20087;-84
2023/03/23 04:01:39;;;;;;;2.35;0.88;;;;;;;;;;5094148;28;20059;-85
2023/03/23 04:04:08;;;;;;;2.47;0.80;;;;;;;;;;5076981;28;20050;-88
2023/03/23 04:06:35;;;;;;;1.17;0.90;;;;;;;;;;5093656;28;20396;-88
2023/03/23 04:09:06;;;;;;;1.30;0.90;;;;;;;;;;5086343;28;20044;-87
2023/03/23 04:11:32;;;;;;;2.95;1.13;;;;;;;;;;5081234;28;20043;-87
2023/03/23 04:13:58;;;;;;;1.02;0.90;;;;;;;;;;5093619;28;20046;-86
2023/03/23 04:16:26;;;;;;;1.20;0.80;;;;;;;;;;5076923;28;20109;-86
2023/03/23 04:18:52;;;;;;;1.50;1.15;;;;;;;;;;5094102;28;20097;-88
2023/03/23 04:21:18;;;;;;;0.98;0.95;;;;;;;;;;5093320;28;20074;-84
2023/03/23 04:23:44;;;;;;;5.22;1.00;;;;;;;;;;5075687;28;20508;-85
2023/03/23 04:26:12;;;;;;;1.52;1.00;;;;;;;;;;5092999;28;20050;-86
2023/03/23 04:28:39;;;;;;;1.80;1.30;;;;;;;;;;5076324;28;20162;-85
2023/03/23 04:31:05;;;;;;;2.42;1.08;;;;;;;;;;5093185;28;20052;-87
2023/03/23 04:33:31;;;;;;;3.00;1.20;;;;;;;;;;5093258;28;20048;-86
2023/03/23 04:36:00;;;;;;;1.67;1.13;;;;;;;;;;5076088;28;20135;-85
2023/03/23 04:38:27;;;;;;;1.20;1.10;;;;;;;;;;5093205;28;20039;-86
2023/03/23 04:40:54;;;;;;;1.92;1.05;;;;;;;;;;5076078;28;20574;-87
2023/03/23 04:43:22;;;;;;;1.42;1.05;;;;;;;;;;5093048;28;20130;-85
2023/03/23 04:45:58;;;;;;;2.05;0.90;;;;;;;;;;5093099;28;20051;-86
2023/03/23 04:48:28;;;;;;;0.77;0.65;;;;;;;;;;5092894;28;20083;-86
2023/03/23 04:50:54;;;;;;;1.88;1.30;;;;;;;;;;5093378;28;20466;-86
2023/03/23 04:53:21;;;;;;;1.92;1.30;;;;;;;;;;5075948;28;20419;-86
2023/03/23 04:55:48;;;;;;;1.98;1.88;;;;;;;;;;5075702;28;20491;-87
2023/03/23 04:58:15;;;;;;;3.42;1.23;;;;;;;;;;5093001;28;20044;-86
2023/03/23 05:00:43;;;;;;;2.08;1.20;;;;;;;;;;5076026;28;20189;-86
2023/03/23 05:03:10;;;;;;;1.20;0.95;;;;;;;;;;5075662;28;20130;-86
2023/03/23 05:05:37;;;;;;;3.28;0.70;;;;;;;;;;5075748;28;20051;-86
2023/03/23 05:08:03;;;;;;;7.05;1.13;;;;;;;;;;5093144;28;20380;-87
2023/03/23 05:10:29;;;;;;;1.33;0.90;;;;;;;;;;5075296;28;20040;-86
2023/03/23 05:12:55;;;;;;;4.63;1.20;;;;;;;;;;5092311;28;20092;-87
2023/03/23 05:15:21;;;;;;;3.95;0.75;;;;;;;;;;5075388;28;20130;-86
2023/03/23 05:17:48;;;;;;;1.67;0.93;;;;;;;;;;5092433;28;20047;-86
2023/03/23 05:20:18;;;;;;;2.30;1.05;;;;;;;;;;5076131;28;20047;-86
2023/03/23 05:22:44;;;;;;;1.48;1.08;;;;;;;;;;5075984;28;20039;-87
2023/03/23 05:25:10;;;;;;;4.32;1.30;;;;;;;;;;5088983;28;20136;-87
2023/03/23 05:27:37;;;;;;;3.03;1.00;;;;;;;;;;5075868;28;20055;-87
2023/03/23 05:30:04;;;;;;;1.60;1.10;;;;;;;;;;5075693;28;20097;-87
2023/03/23 05:32:31;;;;;;;2.10;1.23;;;;;;;;;;5075637;28;20555;-87
2023/03/23 05:35:00;;;;;;;1.95;0.82;;;;;;;;;;5075562;28;20044;-87
2023/03/23 05:37:33;;;;;;;3.33;1.33;;;;;;;;;;5079275;28;20098;-87
2023/03/23 05:40:05;;;;;;;0.98;0.98;;;;;;;;;;5079705;28;20062;-87
2023/03/23 05:42:32;;;;;;;1.30;0.95;;;;;;;;;;5079709;28;20051;-87
2023/03/23 05:44:58;;;;;;;1.38;0.93;;;;;;;;;;5079631;28;20044;-87
2023/03/23 05:47:25;;;;;;;2.20;1.20;;;;;;;;;;5096254;28;20044;-87
2023/03/23 05:49:51;;;;;;;1.63;1.20;;;;;;;;;;5079252;28;20503;-87
2023/03/23 05:52:18;;;;;;;4.90;1.23;;;;;;;;;;5079347;28;20044;-87
2023/03/23 05:54:44;;;;;;;2.63;1.50;;;;;;;;;;5079388;28;20076;-87
2023/03/23 05:57:10;;;;;;;2.92;2.10;;;;;;;;;;5096201;28;20055;-87
2023/03/23 05:59:37;;;;;;;3.95;1.10;;;;;;;;;;5096231;28;20450;-87
2023/03/23 06:02:04;;;;;;;1.08;1.05;;;;;;;;;;5079670;28;20443;-87
2023/03/23 06:04:33;;;;;;;0.90;0.90;;;;;;;;;;5079522;28;20077;-87
2023/03/23 06:06:59;;;;;;;1.00;1.00;;;;;;;;;;5079076;28;20492;-88
2023/03/23 06:09:25;;;;;;;1.27;0.90;;;;;;;;;;5096118;28;20036;-87
2023/03/23 06:11:51;;;;;;;1.35;1.20;;;;;;;;;;5078777;28;20044;-87
2023/03/23 06:14:17;;;;;;;1.27;0.80;;;;;;;;;;5095835;28;20055;-88
2023/03/23 06:16:44;;;;;;;1.13;0.90;;;;;;;;;;5079463;28;20056;-87
2023/03/23 06:19:11;;;;;;;3.03;1.10;;;;;;;;;;5079118;28;20044;-87
2023/03/23 06:21:37;;;;;;;1.58;0.95;;;;;;;;;;5078872;28;20051;-87
2023/03/23 06:24:03;;;;;;;3.22;0.88;;;;;;;;;;5078957;28;20052;-87
2023/03/23 06:26:41;;;;;;;1.55;0.85;;;;;;;;;;5095512;28;20488;-88
2023/03/23 06:29:11;;;;;;;0.93;0.93;;;;;;;;;;5078692;28;20043;-87
2023/03/23 06:31:38;;;;;;;1.35;1.08;;;;;;;;;;5095155;28;20146;-88
2023/03/23 06:34:04;;;;;;;1.42;1.10;;;;;;;;;;5078751;28;20059;-87
2023/03/23 06:36:31;;;;;;;1.00;1.00;;;;;;;;;;5095311;28;20051;-87
2023/03/23 06:38:57;;;;;;;3.33;1.35;;;;;;;;;;5088154;28;20062;-88
2023/03/23 06:41:23;;;;;;;1.13;1.10;;;;;;;;;;5083670;28;20043;-88
2023/03/23 06:43:49;;;;;;;2.20;1.20;;;;;;;;;;5078352;28;20134;-87
2023/03/23 06:46:15;;;;;;;2.65;1.10;;;;;;;;;;5078258;28;20051;-87
2023/03/23 06:48:41;;;;;;;4.68;2.17;;;;;;;;;;5077653;28;20403;-87
2023/03/23 06:51:07;;;;;;;1.08;1.00;;;;;;;;;;5078274;28;20044;-87
2023/03/23 06:53:34;;;;;;;3.17;1.65;;;;;;;;;;5078086;28;20120;-87
2023/03/23 06:56:00;;;;;;;5.32;1.60;;;;;;;;;;5078138;28;20388;-87
2023/03/23 06:58:26;;;;;;;6.40;1.80;;;;;;;;;;5078271;28;20048;-87
2023/03/23 07:00:56;;;;;;;5.97;2.28;;;;;;;;;;5077936;28;20044;-87
2023/03/23 07:03:23;;;;;;;4.35;1.85;;;;;;;;;;5078331;28;20438;-87
2023/03/23 07:05:49;;;;;;;7.82;2.25;;;;;;;;;;5077905;28;20127;-87
2023/03/23 07:08:16;;;;;;;4.65;2.00;;;;;;;;;;5078296;28;20128;-87
2023/03/23 07:10:42;;;;;;;2.47;1.48;;;;;;;;;;5078387;28;20553;-87
2023/03/23 07:13:08;;;;;;;2.25;1.30;;;;;;;;;;5094401;28;20135;-87
2023/03/23 07:15:34;;;;;;;4.63;3.08;;;;;;;;;;5077707;28;20048;-87
2023/03/23 07:18:00;;;;;;;6.05;4.60;;;;;;;;;;5077757;28;20484;-87
2023/03/23 07:20:26;;;;;;;3.35;3.08;;;;;;;;;;5077472;28;20392;-87
2023/03/23 07:22:54;;;;;;;1.00;1.00;;;;;;;;;;5077744;28;20086;-86
2023/03/23 07:25:20;;;;;;;2.97;1.90;;;;;;;;;;5094159;28;20492;-86
2023/03/23 07:27:46;;;;;;;2.40;1.60;;;;;;;;;;5077346;28;20056;-86
2023/03/23 07:30:14;;;;;;;2.42;1.58;;;;;;;;;;5077361;28;20054;-87
2023/03/23 07:32:41;;;;;;;1.75;1.38;;;;;;;;;;5094360;28;20044;-86
2023/03/23 07:35:07;;;;;;;1.60;1.50;;;;;;;;;;5077517;28;20135;-87
2023/03/23 07:37:33;;;;;;;2.13;1.92;;;;;;;;;;5093873;28;20052;-87
2023/03/23 07:40:00;;;;;;;3.88;2.80;;;;;;;;;;5077170;28;20044;-87
2023/03/23 07:42:26;;;;;;;2.05;1.40;;;;;;;;;;5094351;28;20040;-87
2023/03/23 07:44:52;;;;;;;2.78;1.50;;;;;;;;;;5077109;28;20094;-86
2023/03/23 07:47:18;;;;;;;2.58;1.80;;;;;;;;;;5094089;28;20048;-87
2023/03/23 07:49:44;;;;;;;2.65;1.40;;;;;;;;;;5076902;28;20150;-87
2023/03/23 07:52:12;;;;;;;4.03;2.17;;;;;;;;;;5077171;28;20055;-87
2023/03/23 07:54:38;;;;;;;2.08;1.65;;;;;;;;;;5093727;28;20048;-87
2023/03/23 07:57:06;;;;;;;2.15;1.45;;;;;;;;;;5077156;28;20062;-87
2023/03/23 07:59:32;;;;;;;5.78;1.88;;;;;;;;;;5077157;28;20095;-87
2023/03/23 08:01:58;;;;;;;5.07;1.67;;;;;;;;;;5093943;28;20044;-87
2023/03/23 08:04:24;;;;;;;5.82;1.98;;;;;;;;;;5093645;28;20044;-87
2023/03/23 08:06:50;;;;;;;2.85;2.33;;;;;;;;;;5076710;28;20052;-88
2023/03/23 08:09:16;;;;;;;2.95;1.60;;;;;;;;;;5093811;28;20050;-88
2023/03/23 08:11:43;;;;;;;3.47;1.50;;;;;;;;;;5076739;28;20063;-88
2023/03/23 08:14:09;;;;;;;1.52;1.33;;;;;;;;;;5076702;28;20480;-87
2023/03/23 08:16:36;;;;;;;3.65;1.10;;;;;;;;;;5076701;28;20044;-88
2023/03/23 08:19:02;;;;;;;1.08;1.02;;;;;;;;;;5093580;28;20127;-87
2023/03/23 08:21:29;;;;;;;4.35;1.83;;;;;;;;;;5076374;28;20097;-87
2023/03/23 08:23:55;;;;;;;1.17;1.02;;;;;;;;;;5076532;28;20044;-87
2023/03/23 08:26:22;;;;;;;2.90;1.50;;;;;;;;;;5076273;28;20044;-87
2023/03/23 08:28:48;;;;;;;2.03;1.10;;;;;;;;;;5077488;28;20093;-88
2023/03/23 08:31:15;;;;;;;2.33;1.30;;;;;;;;;;5076678;28;20043;-87
2023/03/23 08:33:41;;;;;;;1.17;1.02;;;;;;;;;;5076397;28;20044;-87
2023/03/23 08:36:08;;;;;;;1.10;1.00;;;;;;;;;;5076368;28;20547;-88
2023/03/23 08:38:35;;;;;;;3.33;1.05;;;;;;;;;;5076637;28;20432;-88
2023/03/23 08:41:04;;;;;;;4.00;1.58;;;;;;;;;;5093398;28;20495;-86
2023/03/23 08:43:30;;;;;;;2.58;1.02;;;;;;;;;;5076030;28;20067;-86
2023/03/23 08:45:56;;;;;;;3.75;0.88;;;;;;;;;;5092598;28;20052;-88
2023/03/23 08:48:22;;;;;;;2.88;1.13;;;;;;;;;;5076364;28;20070;-88
2023/03/23 08:50:49;;;;;;;2.58;1.00;;;;;;;;;;5092089;28;20054;-88
2023/03/23 08:53:16;;;;;;;2.45;1.20;;;;;;;;;;5076062;28;20040;-87
2023/03/23 08:55:42;;;;;;;3.55;1.20;;;;;;;;;;5076074;28;20395;-86
2023/03/23 08:58:09;;;;;;;2.25;1.13;;;;;;;;;;5076318;28;20040;-89
2023/03/23 09:00:35;;;;;;;1.52;1.15;;;;;;;;;;5092951;28;20058;-88
2023/03/23 09:03:02;;;;;;;1.60;1.50;;;;;;;;;;5092737;28;20040;-87
2023/03/23 09:05:28;;;;;;;2.65;1.65;;;;;;;;;;5092725;28;20101;-87
2023/03/23 09:07:58;;;;;;;3.08;1.40;;;;;;;;;;5093098;28;20048;-87
2023/03/23 09:10:25;;;;;;;2.20;1.33;;;;;;;;;;5107089;28;20386;-87
2023/03/23 09:12:52;;;;;;;0.90;0.90;;;;;;;;;;5076422;28;20047;-87
2023/03/23 09:15:18;;;;;;;1.17;1.10;;;;;;;;;;5092821;28;20044;-87
2023/03/23 09:17:45;;;;;;;3.22;1.20;;;;;;;;;;5092633;28;20048;-87
2023/03/23 09:20:13;;;;;;;2.05;1.00;;;;;;;;;;5075912;28;20051;-87
2023/03/23 09:22:43;;;;;;;7.10;1.40;;;;;;;;;;5092765;28;20044;-87
2023/03/23 09:25:10;;;;;;;1.98;1.10;;;;;;;;;;5092493;28;20055;-87
2023/03/23 09:27:38;;;;;;;8.05;1.35;;;;;;;;;;5091785;28;20044;-87
2023/03/23 09:30:10;;;;;;;6.50;1.13;;;;;;;;;;5075552;28;20051;-86
2023/03/23 09:32:36;;;;;;;14.48;2.15;;;;;;;;;;5092571;28;20039;-87
2023/03/23 09:35:03;;;;;;;7.38;1.83;;;;;;;;;;5075775;28;20182;-88
2023/03/23 09:37:29;;;;;;;1.30;0.90;;;;;;;;;;5092620;28;20048;-88
2023/03/23 09:39:55;;;;;;;3.15;1.02;;;;;;;;;;5075939;28;20044;-88
2023/03/23 09:42:29;;;;;;;6.38;1.10;;;;;;;;;;5075924;28;20078;-87
2023/03/23 09:44:55;;;;;;;2.40;1.00;;;;;;;;;;5092543;28;20147;-87
2023/03/23 09:47:40;;;;;;;0.80;0.80;;;;;;;;;;5075635;28;20071;-88
2023/03/23 09:50:16;;;;;;;3.25;0.93;;;;;;;;;;5075380;28;20048;-88
2023/03/23 09:52:42;;;;;;;1.50;0.90;;;;;;;;;;5092704;28;20040;-88
2023/03/23 09:55:10;;;;;;;2.35;0.70;;;;;;;;;;5092386;28;20048;-88
2023/03/23 09:57:42;;;;;;;1.83;0.90;;;;;;;;;;5092289;28;20127;-88
2023/03/23 10:00:09;;;;;;;1.33;0.85;;;;;;;;;;5075573;28;20093;-88
2023/03/23 10:02:38;;;;;;;1.50;0.85;;;;;;;;;;5075724;28;20036;-87
2023/03/23 10:05:14;;;;;;;2.28;1.10;;;;;;;;;;5075611;28;20048;-88
2023/03/23 10:07:40;;;;;;;1.33;1.20;;;;;;;;;;5075704;28;20048;-88
2023/03/23 10:10:13;;;;;;;0.80;0.80;;;;;;;;;;5075454;28;20495;-87
2023/03/23 10:12:59;;;;;;;0.90;0.90;;;;;;;;;;5075535;28;20043;-88
2023/03/23 10:15:31;;;;;;;1.02;0.95;;;;;;;;;;5092389;28;20043;-88
2023/03/23 10:17:57;;;;;;;3.72;2.00;;;;;;;;;;5092722;28;20047;-87
2023/03/23 10:20:39;;;;;;;1.60;1.40;;;;;;;;;;5075542;28;20109;-87
2023/03/23 10:23:12;;;;;;;1.20;1.08;;;;;;;;;;5086839;28;20055;-87
2023/03/23 10:25:42;;;;;;;3.20;1.00;;;;;;;;;;5109303;28;20407;-89
2023/03/23 10:28:13;;;;;;;5.93;1.20;;;;;;;;;;5079767;28;20377;-88
2023/03/23 10:30:45;;;;;;;2.63;1.13;;;;;;;;;;5078913;28;20040;-88
2023/03/23 10:33:31;;;;;;;2.05;1.17;;;;;;;;;;5078818;28;20048;-89
2023/03/23 10:36:01;;;;;;;1.52;0.93;;;;;;;;;;5078697;28;20060;-88
2023/03/23 10:38:35;;;;;;;1.10;1.00;;;;;;;;;;5078650;28;20054;-88
2023/03/23 10:41:08;;;;;;;0.80;0.80;;;;;;;;;;5078831;28;20047;-89
2023/03/23 10:43:34;;;;;;;1.15;0.80;;;;;;;;;;5095352;28;20135;-89
2023/03/23 10:46:13;;;;;;;1.67;0.80;;;;;;;;;;5078258;28;20040;-88
2023/03/23 10:48:39;;;;;;;1.08;0.80;;;;;;;;;;5078509;28;20040;-88
2023/03/23 10:51:09;;;;;;;0.70;0.70;;;;;;;;;;5078419;28;20404;-87
2023/03/23 10:53:37;;;;;;;2.35;0.80;;;;;;;;;;5078520;28;20054;-88
2023/03/23 10:56:04;;;;;;;4.22;0.88;;;;;;;;;;5078004;28;20040;-88
2023/03/23 10:58:35;;;;;;;2.95;0.70;;;;;;;;;;5095143;28;20048;-89
2023/03/23 11:01:02;;;;;;;0.80;0.60;;;;;;;;;;5078170;28;20044;-86
2023/03/23 11:03:38;;;;;;;3.30;0.60;;;;;;;;;;5095092;28;20047;-87
2023/03/23 11:06:10;;;;;;;0.60;0.60;;;;;;;;;;5078098;28;20044;-87
2023/03/23 11:08:38;;;;;;;0.50;0.50;;;;;;;;;;5094834;28;20502;-87
2023/03/23 11:11:09;;;;;;;4.22;0.82;;;;;;;;;;5077983;28;20044;-87
2023/03/23 11:13:38;;;;;;;1.17;0.55;;;;;;;;;;5095005;28;20051;-90
2023/03/23 11:16:05;;;;;;;0.60;0.60;;;;;;;;;;5077895;28;20040;-88
2023/03/23 11:18:39;;;;;;;1.88;0.73;;;;;;;;;;5077923;28;20051;-87
2023/03/23 11:21:06;;;;;;;1.48;0.88;;;;;;;;;;5094885;28;20095;-87
2023/03/23 11:23:36;;;;;;;0.77;0.45;;;;;;;;;;5094612;28;20396;-87
2023/03/23 11:26:11;;;;;;;0.50;0.50;;;;;;;;;;5077714;28;20070;-87
2023/03/23 11:28:38;;;;;;;0.70;0.40;;;;;;;;;;5077664;28;20055;-87
2023/03/23 11:31:06;;;;;;;0.93;0.50;;;;;;;;;;5077535;28;20052;-88
2023/03/23 11:34:00;;;;;;;0.70;0.70;;;;;;;;;;5077006;28;20476;-88
2023/03/23 11:36:34;;;;;;;0.65;0.65;;;;;;;;;;5074360;28;20048;-88
2023/03/23 11:39:00;;;;;;;1.10;0.50;;;;;;;;;;5095902;28;20052;-89
2023/03/23 11:41:30;;;;;;;0.63;0.63;;;;;;;;;;5091912;28;20066;-89
2023/03/23 11:43:56;;;;;;;0.95;0.70;;;;;;;;;;5077881;28;20113;-88
2023/03/23 11:46:35;;;;;;;1.58;0.77;;;;;;;;;;5076955;28;20044;-88
2023/03/23 11:49:03;;;;;;;1.67;0.60;;;;;;;;;;5077658;28;20048;-88
2023/03/23 11:51:46;;;;;;;2.90;0.88;;;;;;;;;;5077329;28;20048;-88
2023/03/23 11:54:24;;;;;;;3.03;2.83;;;;;;;;;;5093854;28;20044;-88
2023/03/23 11:56:51;;;;;;;1.80;1.70;;;;;;;;;;5077277;28;20139;-88
2023/03/23 11:59:18;;;;;;;0.60;0.60;;;;;;;;;;5094177;28;20078;-88
2023/03/23 12:01:47;;;;;;;1.15;0.82;;;;;;;;;;5077078;28;20055;-88
2023/03/23 12:04:23;;;;;;;0.40;0.40;;;;;;;;;;5094274;28;20051;-88
2023/03/23 12:07:03;;;;;;;2.45;0.60;;;;;;;;;;5076927;28;20143;-89
2023/03/23 12:09:29;;;;;;;0.55;0.50;;;;;;;;;;5094014;28;20055;-87
2023/03/23 12:12:09;;;;;;;0.60;0.60;;;;;;;;;;5094408;28;20083;-88
2023/03/23 12:14:49;;;;;;;0.50;0.50;;;;;;;;;;5076806;28;20123;-88
2023/03/23 12:17:19;;;;;;;0.85;0.63;;;;;;;;;;5076838;28;20422;-88
2023/03/23 12:19:58;;;;;;;0.40;0.40;;;;;;;;;;5093980;28;20047;-88
2023/03/23 12:22:32;;;;;;;0.45;0.45;;;;;;;;;;5077340;28;20519;-89
2023/03/23 12:24:58;;;;;;;7.18;1.08;;;;;;;;;;5093308;28;20044;-88
2023/03/23 12:27:30;;;;;;;1.90;0.70;;;;;;;;;;5093129;28;20052;-89
2023/03/23 12:30:15;;;;;;;0.50;0.50;;;;;;;;;;5093404;28;20498;-89
2023/03/23 12:33:00;;;;;;;0.80;0.80;;;;;;;;;;5093370;28;20044;-89
2023/03/23 12:35:49;;;;;;;1.90;0.63;;;;;;;;;;5076256;28;20043;-88
2023/03/23 12:38:18;;;;;;;0.60;0.60;;;;;;;;;;5093318;28;20415;-88
2023/03/23 12:40:47;;;;;;;1.00;1.00;;;;;;;;;;5076954;28;20081;-88
2023/03/23 12:43:21;;;;;;;0.70;0.65;;;;;;;;;;5076475;28;20051;-88
2023/03/23 12:45:56;;;;;;;0.80;0.80;;;;;;;;;;5076115;28;20067;-89
2023/03/23 12:48:25;;;;;;;0.57;0.57;;;;;;;;;;5077090;28;20051;-88
2023/03/23 12:51:06;;;;;;;0.77;0.60;;;;;;;;;;5076357;28;20044;-88
2023/03/23 12:53:35;;;;;;;0.65;0.65;;;;;;;;;;5093218;28;20130;-88
2023/03/23 12:56:05;;;;;;;1.85;0.50;;;;;;;;;;5092394;28;20093;-88
2023/03/23 12:58:33;;;;;;;0.82;0.68;;;;;;;;;;5077240;28;20066;-87
2023/03/23 13:01:09;;;;;;;0.73;0.50;;;;;;;;;;5092940;28;20040;-89
2023/03/23 13:03:40;;;;;;;0.73;0.70;;;;;;;;;;5093085;28;20063;-89
2023/03/23 13:06:13;;;;;;;2.38;0.60;;;;;;;;;;5076679;28;20044;-88
2023/03/23 13:08:42;;;;;;;3.00;1.58;;;;;;;;;;5076146;28;20083;-87
2023/03/23 13:11:12;;;;;;;0.43;0.43;;;;;;;;;;5075985;28;20043;-88
2023/03/23 13:13:45;;;;;;;1.48;0.40;;;;;;;;;;5076058;28;20040;-90
2023/03/23 13:16:15;;;;;;;2.13;0.40;;;;;;;;;;5076092;28;20488;-89
2023/03/23 13:18:56;;;;;;;0.50;0.35;;;;;;;;;;5076296;28;20048;-88
2023/03/23 13:21:26;;;;;;;1.42;0.60;;;;;;;;;;5076371;28;20047;-88
2023/03/23 13:23:57;;;;;;;0.40;0.40;;;;;;;;;;5076052;28;20048;-89
2023/03/23 13:26:24;;;;;;;0.93;0.50;;;;;;;;;;5076233;28;20040;-88
2023/03/23 13:29:09;;;;;;;2.08;0.50;;;;;;;;;;5076098;28;20109;-88
2023/03/23 13:31:36;;;;;;;2.38;0.50;;;;;;;;;;5075778;28;20040;-88
2023/03/23 13:34:11;;;;;;;0.20;0.20;;;;;;;;;;5092844;28;20105;-90
2023/03/23 13:36:39;;;;;;;2.30;0.80;;;;;;;;;;5075979;28;20113;-86
2023/03/23 13:39:08;;;;;;;1.75;0.50;;;;;;;;;;5075588;28;20098;-88
2023/03/23 13:41:34;;;;;;;0.90;0.85;;;;;;;;;;5076278;28;20067;-89
2023/03/23 13:44:36;;;;;;;0.43;0.40;;;;;;;;;;5092595;28;20087;-88
2023/03/23 13:47:16;;;;;;;0.68;0.40;;;;;;;;;;4995629;28;20056;-88
2023/03/23 13:49:53;;;;;;;3.03;0.75;;;;;;;;;;5067418;28;20040;-91
2023/03/23 13:52:23;;;;;;;0.70;0.50;;;;;;;;;;5074926;28;20522;-88
2023/03/23 13:54:51;;;;;;;0.88;0.50;;;;;;;;;;5075963;28;20131;-88
2023/03/23 13:57:24;;;;;;;2.30;0.40;;;;;;;;;;5094757;28;20071;-88
2023/03/23 13:59:56;;;;;;;2.17;0.60;;;;;;;;;;5079346;28;20047;-87
2023/03/23 14:02:37;;;;;;;1.42;0.50;;;;;;;;;;5079575;28;20823;-89
2023/03/23 14:05:26;;;;;;;1.00;0.50;;;;;;;;;;5079412;28;20055;-88
2023/03/23 14:08:00;;;;;;;0.85;0.50;;;;;;;;;;5079302;28;20044;-89
2023/03/23 14:10:34;;;;;;;1.15;0.60;;;;;;;;;;5091490;28;20142;-89
2023/03/23 14:13:01;;;;;;;0.95;0.73;;;;;;;;;;5081670;28;20087;-89
2023/03/23 14:15:32;;;;;;;1.20;0.70;;;;;;;;;;5079503;28;20097;-88
2023/03/23 14:18:02;;;;;;;1.63;0.60;;;;;;;;;;5079212;28;20548;-88
2023/03/23 14:20:33;;;;;;;1.48;0.73;;;;;;;;;;5079310;28;20147;-87
2023/03/23 14:22:59;;;;;;;1.02;0.85;;;;;;;;;;5079414;28;20039;-88
2023/03/23 14:25:31;;;;;;;0.73;0.50;;;;;;;;;;5079213;28;20134;-90
2023/03/23 14:27:57;;;;;;;2.95;0.63;;;;;;;;;;5079060;28;20058;-88
2023/03/23 14:30:25;;;;;;;3.10;0.93;;;;;;;;;;5079043;28;20098;-88
2023/03/23 14:32:52;;;;;;;0.60;0.60;;;;;;;;;;5078665;28;20048;-87
2023/03/23 14:35:28;;;;;;;4.97;0.93;;;;;;;;;;5095553;28;20089;-87
2023/03/23 14:37:55;;;;;;;1.95;0.60;;;;;;;;;;5095567;28;20095;-88
2023/03/23 14:40:22;;;;;;;3.97;2.45;;;;;;;;;;5078480;28;20496;-87
2023/03/23 14:42:48;;;;;;;2.97;1.77;;;;;;;;;;5078757;28;20048;-88
2023/03/23 14:45:17;;;;;;;3.13;1.08;;;;;;;;;;5078694;28;20048;-88
2023/03/23 14:47:46;;;;;;;2.88;0.70;;;;;;;;;;5078492;28;20559;-90
2023/03/23 14:50:39;;;;;;;3.50;0.70;;;;;;;;;;5078911;28;20048;-88
2023/03/23 14:53:17;;;;;;;2.30;0.55;;;;;;;;;;5078730;28;20056;-89
2023/03/23 14:55:44;;;;;;;0.93;0.80;;;;;;;;;;5078342;28;20046;-88